CheckWX is a tool to help pilots better visualize weather data.  It is not intended as a substitute for an official pre-flight weather briefing.

19:26:25 UTC

DABB METAR
Annaba Airport
Annabah, Algeria
Current

26 mins ago

DABB 191900Z 06003KT CAVOK 11/10 Q1019
Observed
Feb-19 @ 19:00 UTC
Wind
  • 060° at 3 KTS
Visibility
10,000+ meters
Flight Rules
VFR
Cloud Levels
  • Clear skies
Temperature
11°C / 52°F
Dewpoint
10°C / 50°F
Humidity
94%
Altimeter
30.09" Hg
Pressure
1018.92 hPa
Previous

56 mins ago

DABB 191830Z 05005KT CAVOK 12/10 Q1019
Observed
Feb-19 @ 18:30 UTC
Wind
  • 050° at 5 KTS
Visibility
10,000+ meters
Flight Rules
VFR
Cloud Levels
  • Clear skies
Temperature
12°C / 54°F
Dewpoint
10°C / 50°F
Humidity
88%
Altimeter
30.09" Hg
Pressure
1018.92 hPa
Previous

1 hour ago

DABB 191800Z 04008KT CAVOK 12/10 Q1018
Observed
Feb-19 @ 18:00 UTC
Wind
  • 040° at 8 KTS
Visibility
10,000+ meters
Flight Rules
VFR
Cloud Levels
  • Clear skies
Temperature
12°C / 54°F
Dewpoint
10°C / 50°F
Humidity
88%
Altimeter
30.06" Hg
Pressure
1017.92 hPa